Time;durP1;ratioP1;P1;durP2;ratioP2;P2;SDS_P1;SDS_P2;PMS_P1;PMS_P2;Temp;Humidity;BMP_temperature;BMP_pressure;BME280_temperature;BME280_humidity;BME280_pressure;Samples;Min_cycle;Max_cycle;Signal;HPM_P1;HPM_P2
2023/05/05 00:02:22;;;;;;;5.88;2.30;;;11.60;99.90;;;;;;4974686;28;20386;-68
2023/05/05 00:04:48;;;;;;;5.22;2.42;;;11.50;99.90;;;;;;4973398;28;20042;-67
2023/05/05 00:07:13;;;;;;;4.72;2.45;;;11.50;99.90;;;;;;4974736;28;20491;-67
2023/05/05 00:09:40;;;;;;;4.65;2.22;;;11.50;99.90;;;;;;4973915;28;20039;-68
2023/05/05 00:12:06;;;;;;;5.80;2.70;;;11.50;99.90;;;;;;4974555;28;20050;-68
2023/05/05 00:14:32;;;;;;;6.63;2.92;;;11.50;99.90;;;;;;4974826;28;20186;-67
2023/05/05 00:16:57;;;;;;;4.53;2.42;;;11.40;99.90;;;;;;4974395;28;20121;-68
2023/05/05 00:19:23;;;;;;;5.57;2.55;;;11.50;99.90;;;;;;4957302;28;20050;-67
2023/05/05 00:21:49;;;;;;;3.88;2.70;;;11.40;99.90;;;;;;4974513;28;20043;-69
2023/05/05 00:24:15;;;;;;;5.97;2.58;;;11.40;99.90;;;;;;4973638;28;20049;-68
2023/05/05 00:26:40;;;;;;;7.22;2.90;;;11.40;99.90;;;;;;4974408;28;20078;-68
2023/05/05 00:29:06;;;;;;;7.65;3.05;;;11.30;99.90;;;;;;4974452;28;20050;-68
2023/05/05 00:31:32;;;;;;;5.15;2.53;;;11.40;99.90;;;;;;4957458;28;20387;-67
2023/05/05 00:33:57;;;;;;;4.10;2.63;;;11.30;99.90;;;;;;4974275;28;20126;-69
2023/05/05 00:36:23;;;;;;;5.20;2.80;;;11.30;99.90;;;;;;4973105;28;20042;-68
2023/05/05 00:38:49;;;;;;;4.95;2.85;;;11.20;99.90;;;;;;4974206;28;20043;-68
2023/05/05 00:41:15;;;;;;;6.13;3.08;;;11.20;99.90;;;;;;4973519;28;20105;-69
2023/05/05 00:43:40;;;;;;;3.33;2.30;;;11.20;99.90;;;;;;4974458;28;20391;-68
2023/05/05 00:46:20;;;;;;;5.68;2.60;;;11.20;99.90;;;;;;4974352;28;20122;-67
2023/05/05 00:48:45;;;;;;;5.30;3.00;;;11.10;99.90;;;;;;4974279;28;20382;-67
2023/05/05 00:51:13;;;;;;;5.30;3.00;;;11.10;99.90;;;;;;4973217;28;20137;-68
2023/05/05 00:53:41;;;;;;;5.93;2.63;;;11.10;99.90;;;;;;4973963;28;20047;-67
2023/05/05 00:56:07;;;;;;;5.40;2.97;;;11.10;99.90;;;;;;4974180;28;20081;-67
2023/05/05 00:58:35;;;;;;;4.65;2.80;;;11.10;99.90;;;;;;4957367;28;20046;-67
2023/05/05 01:01:01;;;;;;;6.32;2.92;;;11.10;99.90;;;;;;4973060;28;20043;-67
2023/05/05 01:03:26;;;;;;;5.32;2.83;;;11.10;99.90;;;;;;4959760;28;20049;-68
2023/05/05 01:06:14;;;;;;;3.58;2.85;;;11.10;99.90;;;;;;4977079;28;20047;-68
2023/05/05 01:08:53;;;;;;;7.57;3.10;;;11.10;99.90;;;;;;4976494;28;20042;-68
2023/05/05 01:11:32;;;;;;;5.78;3.05;;;11.00;99.90;;;;;;4960900;28;20051;-67
2023/05/05 01:14:04;;;;;;;6.72;2.47;;;11.00;99.90;;;;;;4977551;28;20047;-67
2023/05/05 01:16:32;;;;;;;6.30;3.08;;;11.00;99.90;;;;;;4977680;28;20352;-67
2023/05/05 01:19:42;;;;;;;5.47;2.92;;;11.00;99.90;;;;;;4977984;28;20039;-67
2023/05/05 01:22:12;;;;;;;3.22;2.80;;;11.00;99.90;;;;;;4975873;28;20050;-67
2023/05/05 01:24:44;;;;;;;6.70;2.40;;;11.00;99.90;;;;;;4977563;28;20101;-68
2023/05/05 01:27:32;;;;;;;5.53;3.10;;;11.20;99.90;;;;;;4977471;28;20121;-68
2023/05/05 01:30:15;;;;;;;6.65;3.00;;;10.90;99.90;;;;;;4977518;28;20078;-67
2023/05/05 01:32:50;;;;;;;5.28;3.03;;;10.90;99.90;;;;;;4976360;28;20058;-67
2023/05/05 01:35:25;;;;;;;6.07;3.03;;;10.90;99.90;;;;;;4976201;28;20494;-68
2023/05/05 01:37:54;;;;;;;8.93;3.00;;;10.90;99.90;;;;;;4976274;28;20414;-68
2023/05/05 01:40:28;;;;;;;6.75;3.05;;;10.80;99.90;;;;;;4977260;28;20423;-67
2023/05/05 01:42:57;;;;;;;4.95;3.20;;;10.90;99.90;;;;;;4977067;28;20050;-68
2023/05/05 01:45:27;;;;;;;6.88;3.50;;;10.80;99.90;;;;;;4976274;28;20055;-68
2023/05/05 01:47:55;;;;;;;4.35;2.85;;;10.80;99.90;;;;;;4975914;28;20043;-67
2023/05/05 01:50:21;;;;;;;6.32;3.10;;;10.80;99.90;;;;;;4977070;28;20069;-66
2023/05/05 01:52:49;;;;;;;7.18;3.05;;;10.80;99.90;;;;;;4976389;28;20050;-66
2023/05/05 01:55:17;;;;;;;5.28;3.40;;;10.80;99.90;;;;;;4976927;28;20439;-67
2023/05/05 01:57:45;;;;;;;8.63;3.38;;;10.70;99.90;;;;;;4975493;28;20046;-67
2023/05/05 02:00:12;;;;;;;5.03;2.60;;;10.80;99.90;;;;;;4976027;28;20054;-68
2023/05/05 02:02:39;;;;;;;8.60;3.03;;;10.80;99.90;;;;;;4976183;28;20093;-67
2023/05/05 02:05:06;;;;;;;5.32;3.08;;;10.70;99.90;;;;;;4977053;28;20054;-67
2023/05/05 02:07:33;;;;;;;4.03;2.67;;;10.70;99.90;;;;;;4976848;28;20494;-67
2023/05/05 02:10:01;;;;;;;6.03;3.13;;;10.80;99.90;;;;;;4976469;28;20391;-67
2023/05/05 02:12:29;;;;;;;7.93;3.22;;;10.70;99.90;;;;;;4975726;28;20085;-68
2023/05/05 02:15:00;;;;;;;7.13;3.10;;;10.80;99.90;;;;;;4974857;28;20043;-67
2023/05/05 02:17:26;;;;;;;5.00;3.20;;;10.70;99.90;;;;;;4975727;28;20042;-67
2023/05/05 02:19:53;;;;;;;7.28;2.83;;;10.70;99.90;;;;;;4975529;28;20174;-67
2023/05/05 02:22:19;;;;;;;6.68;3.33;;;10.70;99.90;;;;;;4976003;28;20540;-67
2023/05/05 02:24:45;;;;;;;8.77;3.28;;;10.60;99.90;;;;;;4976156;28;20043;-67
2023/05/05 02:27:13;;;;;;;4.60;2.90;;;10.60;99.90;;;;;;4976198;28;20038;-67
2023/05/05 02:29:46;;;;;;;5.40;3.28;;;10.60;99.90;;;;;;4976478;28;20376;-67
2023/05/05 02:32:32;;;;;;;4.88;3.13;;;10.60;99.90;;;;;;4976313;28;20082;-67
2023/05/05 02:35:12;;;;;;;6.07;3.45;;;10.70;99.90;;;;;;4975073;28;20048;-68
2023/05/05 02:37:42;;;;;;;7.53;3.08;;;10.60;99.90;;;;;;4976482;28;20054;-67
2023/05/05 02:40:10;;;;;;;5.57;2.88;;;10.60;99.90;;;;;;4976104;28;20469;-66
2023/05/05 02:42:39;;;;;;;5.35;3.03;;;10.60;99.90;;;;;;4976154;28;20042;-66
2023/05/05 02:45:16;;;;;;;5.00;2.85;;;10.50;99.90;;;;;;4975862;28;20049;-66
2023/05/05 02:47:42;;;;;;;6.18;3.15;;;10.60;99.90;;;;;;4975959;28;20042;-67
2023/05/05 02:50:08;;;;;;;5.45;3.42;;;10.60;99.90;;;;;;4974807;28;20038;-67
2023/05/05 02:52:35;;;;;;;4.63;2.78;;;10.60;99.90;;;;;;4974460;28;20113;-67
2023/05/05 02:55:02;;;;;;;5.43;2.53;;;10.60;99.90;;;;;;4974696;28;20068;-66
2023/05/05 02:57:38;;;;;;;7.63;3.35;;;10.60;99.90;;;;;;4975728;28;20471;-66
2023/05/05 03:00:12;;;;;;;6.05;2.85;;;10.60;99.90;;;;;;4975807;28;20069;-67
2023/05/05 03:03:05;;;;;;;3.88;2.60;;;10.60;99.90;;;;;;4975615;28;20097;-66
2023/05/05 03:05:44;;;;;;;6.40;2.83;;;10.60;99.90;;;;;;4975764;28;20529;-66
2023/05/05 03:08:17;;;;;;;5.20;2.70;;;10.60;99.90;;;;;;4975619;28;20051;-67
2023/05/05 03:10:58;;;;;;;5.93;2.45;;;10.60;99.90;;;;;;4974376;28;20043;-67
2023/05/05 03:13:27;;;;;;;4.78;2.72;;;10.60;99.90;;;;;;4975572;28;20100;-68
2023/05/05 03:15:55;;;;;;;4.75;3.00;;;10.70;99.90;;;;;;4975441;28;20078;-67
2023/05/05 03:18:22;;;;;;;5.05;3.25;;;10.60;99.90;;;;;;4975362;28;20360;-67
2023/05/05 03:20:48;;;;;;;5.97;2.38;;;10.70;99.90;;;;;;4974205;28;20109;-66
2023/05/05 03:23:14;;;;;;;6.40;3.17;;;10.70;99.90;;;;;;4974649;28;20129;-66
2023/05/05 03:25:44;;;;;;;3.25;2.35;;;10.70;99.90;;;;;;4974514;28;20133;-65
2023/05/05 03:28:10;;;;;;;6.10;2.75;;;10.60;99.90;;;;;;4975262;28;20098;-66
2023/05/05 03:30:36;;;;;;;6.15;2.70;;;10.70;99.90;;;;;;4975184;28;20124;-66
2023/05/05 03:33:02;;;;;;;4.93;2.55;;;10.70;99.90;;;;;;4975088;28;20054;-66
2023/05/05 03:35:27;;;;;;;4.63;2.80;;;10.70;99.90;;;;;;4974040;28;20038;-66
2023/05/05 03:37:54;;;;;;;3.92;2.80;;;10.70;99.90;;;;;;4973967;28;20050;-67
2023/05/05 03:40:21;;;;;;;4.20;2.70;;;10.70;99.90;;;;;;4974208;28;20051;-67
2023/05/05 03:42:46;;;;;;;7.00;2.65;;;10.70;99.90;;;;;;4975418;28;20050;-67
2023/05/05 03:45:12;;;;;;;4.93;2.92;;;10.70;99.90;;;;;;4974910;28;20050;-67
2023/05/05 03:47:38;;;;;;;6.25;2.90;;;10.60;99.90;;;;;;4975074;28;20122;-67
2023/05/05 03:50:04;;;;;;;6.18;2.78;;;10.70;99.90;;;;;;4973672;28;20051;-67
2023/05/05 03:52:30;;;;;;;4.05;2.45;;;10.60;99.90;;;;;;4974437;28;20054;-67
2023/05/05 03:54:56;;;;;;;4.72;3.72;;;10.60;99.90;;;;;;4974996;28;20046;-67
2023/05/05 03:57:22;;;;;;;5.15;2.88;;;10.60;99.90;;;;;;4973423;28;20058;-67
2023/05/05 03:59:48;;;;;;;6.40;3.03;;;10.60;99.90;;;;;;4973681;28;20150;-67
2023/05/05 04:02:13;;;;;;;3.78;2.30;;;10.50;99.90;;;;;;4973120;28;20129;-67
2023/05/05 04:04:39;;;;;;;4.20;2.65;;;10.50;99.90;;;;;;4974481;28;20051;-67
2023/05/05 04:07:05;;;;;;;4.93;2.80;;;10.50;99.90;;;;;;4973365;28;20078;-67
2023/05/05 04:09:30;;;;;;;5.63;2.40;;;10.50;99.90;;;;;;4973544;28;20047;-67
2023/05/05 04:11:56;;;;;;;4.18;2.90;;;10.50;99.90;;;;;;4973171;28;20072;-66
2023/05/05 04:14:22;;;;;;;5.88;2.45;;;10.50;99.90;;;;;;4974336;28;20085;-67
2023/05/05 04:16:47;;;;;;;5.07;3.00;;;10.50;99.90;;;;;;4974234;28;20047;-67
2023/05/05 04:19:13;;;;;;;7.10;2.78;;;10.50;99.90;;;;;;4974140;28;20043;-67
2023/05/05 04:21:39;;;;;;;3.92;2.65;;;10.50;99.90;;;;;;4957066;28;20046;-68
2023/05/05 04:24:05;;;;;;;3.92;2.35;;;10.50;99.90;;;;;;4972777;28;20047;-67
2023/05/05 04:26:31;;;;;;;3.95;2.70;;;10.50;99.90;;;;;;4973336;28;20492;-67
2023/05/05 04:28:56;;;;;;;5.78;2.90;;;10.60;99.90;;;;;;4974442;28;20134;-67
2023/05/05 04:31:22;;;;;;;6.45;2.75;;;10.60;99.90;;;;;;4974201;28;20472;-67
2023/05/05 04:33:48;;;;;;;3.80;2.58;;;10.70;99.90;;;;;;4972893;28;20046;-67
2023/05/05 04:36:13;;;;;;;6.25;3.03;;;10.70;99.90;;;;;;4974014;28;20058;-67
2023/05/05 04:38:39;;;;;;;5.70;3.15;;;10.70;99.90;;;;;;4976785;28;20054;-67
2023/05/05 04:41:05;;;;;;;4.55;2.60;;;10.80;99.90;;;;;;4976984;28;20046;-68
2023/05/05 04:43:31;;;;;;;5.88;2.60;;;10.80;99.90;;;;;;4978278;28;20050;-68
2023/05/05 04:45:56;;;;;;;4.57;2.63;;;10.90;99.90;;;;;;4960749;28;20125;-66
2023/05/05 04:48:22;;;;;;;5.50;2.75;;;10.90;99.90;;;;;;4960618;28;20050;-68
2023/05/05 04:50:48;;;;;;;10.00;2.80;;;10.90;99.90;;;;;;4960576;28;20062;-68
2023/05/05 04:53:14;;;;;;;6.03;2.50;;;10.90;99.90;;;;;;4977408;28;20046;-67
2023/05/05 04:55:40;;;;;;;4.20;2.45;;;10.90;99.90;;;;;;4978170;28;20101;-68
2023/05/05 04:58:06;;;;;;;4.32;2.95;;;10.90;99.90;;;;;;4977863;28;20125;-68
2023/05/05 05:00:32;;;;;;;6.80;3.10;;;11.00;99.90;;;;;;4976753;28;20071;-67
2023/05/05 05:02:57;;;;;;;3.70;2.78;;;11.00;99.90;;;;;;4977624;28;20100;-67
2023/05/05 05:05:23;;;;;;;5.72;2.90;;;10.90;99.90;;;;;;4977504;28;20109;-68
2023/05/05 05:07:49;;;;;;;4.03;2.58;;;11.00;99.90;;;;;;4977682;28;20081;-67
2023/05/05 05:10:15;;;;;;;5.00;2.83;;;10.90;99.90;;;;;;4960613;28;20090;-68
2023/05/05 05:12:41;;;;;;;4.68;3.20;;;10.90;99.90;;;;;;4976682;28;20129;-67
2023/05/05 05:15:08;;;;;;;6.10;3.10;;;10.90;99.90;;;;;;4976483;28;20129;-68
2023/05/05 05:17:33;;;;;;;6.15;3.22;;;10.90;99.90;;;;;;4977340;28;20047;-68
2023/05/05 05:20:03;;;;;;;7.45;3.50;;;10.90;99.90;;;;;;4977184;28;20615;-68
2023/05/05 05:22:29;;;;;;;4.70;3.30;;;10.80;99.90;;;;;;4959892;28;20050;-68
2023/05/05 05:24:55;;;;;;;5.53;3.30;;;10.90;99.90;;;;;;4960447;28;20053;-68
2023/05/05 05:27:20;;;;;;;6.07;3.00;;;10.90;99.90;;;;;;4944400;28;20130;-68
2023/05/05 05:29:46;;;;;;;7.43;3.50;;;10.90;99.90;;;;;;4977200;28;20047;-67
2023/05/05 05:32:12;;;;;;;8.13;3.15;;;10.80;99.90;;;;;;4976081;28;20065;-67
2023/05/05 05:34:37;;;;;;;5.70;3.47;;;10.80;99.90;;;;;;4976152;28;20471;-66
2023/05/05 05:37:03;;;;;;;5.50;2.75;;;10.80;99.90;;;;;;4977376;28;20057;-68
2023/05/05 05:39:29;;;;;;;5.95;2.88;;;10.70;99.90;;;;;;4976124;28;20043;-68
2023/05/05 05:41:54;;;;;;;8.18;4.25;;;10.70;99.90;;;;;;4975988;28;20530;-68
2023/05/05 05:44:20;;;;;;;8.90;4.30;;;10.60;99.90;;;;;;4976058;28;20050;-68
2023/05/05 05:46:46;;;;;;;12.57;4.20;;;10.60;99.90;;;;;;4975563;28;20043;-69
2023/05/05 05:49:11;;;;;;;6.30;3.53;;;10.50;99.90;;;;;;4974168;28;20563;-68
2023/05/05 05:51:37;;;;;;;6.22;4.10;;;10.50;99.90;;;;;;4976812;28;20138;-69
2023/05/05 05:54:03;;;;;;;6.45;4.13;;;10.40;99.90;;;;;;4959201;28;20471;-69
2023/05/05 05:56:28;;;;;;;4.90;3.80;;;10.40;99.90;;;;;;4975673;28;20082;-68
2023/05/05 05:58:54;;;;;;;4.47;3.47;;;10.40;99.90;;;;;;4976545;28;20483;-69
2023/05/05 06:01:23;;;;;;;5.35;4.07;;;10.30;99.90;;;;;;4976419;28;20562;-69
2023/05/05 06:03:49;;;;;;;5.70;3.70;;;10.30;99.90;;;;;;4975341;28;20137;-69
2023/05/05 06:06:15;;;;;;;7.25;3.65;;;10.30;99.90;;;;;;4976609;28;20050;-69
2023/05/05 06:08:40;;;;;;;7.65;4.00;;;10.30;99.90;;;;;;4975981;28;20050;-69
2023/05/05 06:11:06;;;;;;;8.63;3.85;;;10.30;99.90;;;;;;4976456;28;20085;-68
2023/05/05 06:13:32;;;;;;;8.80;4.25;;;10.30;99.90;;;;;;4975410;28;20051;-68
2023/05/05 06:15:58;;;;;;;7.20;3.83;;;10.40;99.90;;;;;;4976248;28;20399;-69
2023/05/05 06:18:24;;;;;;;6.50;4.20;;;10.40;99.90;;;;;;4958709;28;20086;-69
2023/05/05 06:20:51;;;;;;;7.88;4.30;;;10.40;99.90;;;;;;4959410;28;20101;-69
2023/05/05 06:23:17;;;;;;;8.85;4.18;;;10.40;99.90;;;;;;4975714;28;20058;-69
2023/05/05 06:25:42;;;;;;;7.53;3.85;;;10.40;99.90;;;;;;4976580;28;20108;-69
2023/05/05 06:28:08;;;;;;;7.80;4.00;;;10.50;99.90;;;;;;4975020;28;20050;-69
2023/05/05 06:30:34;;;;;;;8.50;4.30;;;10.60;99.90;;;;;;4976107;28;20054;-69
2023/05/05 06:33:00;;;;;;;6.40;3.53;;;10.70;99.90;;;;;;4958758;28;20097;-69
2023/05/05 06:35:25;;;;;;;5.32;3.88;;;10.80;99.90;;;;;;4974822;28;20184;-68
2023/05/05 06:37:51;;;;;;;7.03;4.53;;;10.80;99.90;;;;;;4975883;28;20054;-68
2023/05/05 06:40:17;;;;;;;4.82;3.85;;;10.90;99.90;;;;;;4974937;28;20070;-68
2023/05/05 06:42:42;;;;;;;7.68;4.35;;;10.90;99.90;;;;;;4975906;28;20142;-69
2023/05/05 06:45:09;;;;;;;6.38;3.97;;;10.90;99.90;;;;;;4974842;28;20051;-68
2023/05/05 06:47:34;;;;;;;7.55;4.45;;;10.90;99.90;;;;;;4975587;28;20055;-68
2023/05/05 06:50:00;;;;;;;6.05;4.00;;;11.00;99.90;;;;;;4975944;28;20062;-68
2023/05/05 06:52:26;;;;;;;6.18;4.45;;;11.00;99.90;;;;;;4992568;28;20487;-68
2023/05/05 06:54:51;;;;;;;7.72;3.88;;;11.10;99.90;;;;;;4977534;28;20173;-68
2023/05/05 06:57:17;;;;;;;7.75;4.38;;;11.00;99.90;;;;;;4993758;28;20482;-68
2023/05/05 06:59:43;;;;;;;6.72;4.10;;;11.00;99.90;;;;;;4994791;28;20380;-69
2023/05/05 07:02:08;;;;;;;8.38;4.10;;;11.10;99.90;;;;;;4994630;28;20044;-69
2023/05/05 07:04:35;;;;;;;7.15;4.10;;;11.10;99.90;;;;;;4994728;28;20048;-68
2023/05/05 07:07:01;;;;;;;6.75;4.05;;;11.10;99.90;;;;;;4994910;28;20097;-68
2023/05/05 07:09:26;;;;;;;5.95;3.90;;;11.10;99.90;;;;;;4993896;28;20050;-67
2023/05/05 07:11:52;;;;;;;8.05;4.70;;;11.10;99.90;;;;;;4994770;28;20089;-67
2023/05/05 07:14:18;;;;;;;5.88;4.38;;;12.70;99.90;;;;;;4993654;28;20077;-67
2023/05/05 07:16:43;;;;;;;7.53;4.55;;;11.10;99.90;;;;;;4977199;28;20042;-68
2023/05/05 07:19:09;;;;;;;4.85;3.85;;;11.10;99.90;;;;;;4994454;28;20483;-68
2023/05/05 07:21:35;;;;;;;6.85;4.50;;;11.20;99.90;;;;;;4994626;28;20050;-68
2023/05/05 07:24:02;;;;;;;6.85;4.22;;;11.20;99.90;;;;;;4993038;28;20055;-68
2023/05/05 07:26:28;;;;;;;9.23;4.63;;;11.20;99.90;;;;;;4994527;28;20065;-67
2023/05/05 07:28:57;;;;;;;6.63;4.60;;;11.30;99.90;;;;;;4994489;28;20042;-68
2023/05/05 07:31:24;;;;;;;8.70;4.47;;;11.40;99.90;;;;;;4994177;28;20186;-68
2023/05/05 07:33:50;;;;;;;8.13;4.38;;;11.40;99.90;;;;;;4994268;28;20555;-68
2023/05/05 07:36:17;;;;;;;7.60;4.28;;;11.50;99.90;;;;;;4993072;28;20082;-68
2023/05/05 07:38:43;;;;;;;7.43;4.65;;;11.50;99.90;;;;;;4994419;28;20042;-68
2023/05/05 07:41:10;;;;;;;8.32;4.72;;;11.60;99.90;;;;;;4993290;28;20043;-69
2023/05/05 07:43:37;;;;;;;7.10;4.72;;;11.60;99.90;;;;;;4993084;28;20050;-68
2023/05/05 07:46:03;;;;;;;7.82;5.18;;;11.60;99.90;;;;;;4994057;28;20525;-69
2023/05/05 07:48:29;;;;;;;8.73;4.93;;;11.60;99.90;;;;;;4994576;28;20081;-68
2023/05/05 07:50:54;;;;;;;5.82;4.70;;;11.60;99.90;;;;;;4994367;28;20109;-69
2023/05/05 07:53:20;;;;;;;6.55;5.47;;;11.70;99.90;;;;;;4993815;28;20129;-68
2023/05/05 07:55:46;;;;;;;9.40;5.50;;;11.70;99.90;;;;;;4992946;28;20097;-69
2023/05/05 07:58:12;;;;;;;7.82;5.72;;;11.80;99.90;;;;;;4994108;28;20050;-68
2023/05/05 08:00:38;;;;;;;8.90;5.20;;;11.80;99.90;;;;;;4994072;28;20046;-69
2023/05/05 08:03:04;;;;;;;7.30;5.18;;;11.90;99.90;;;;;;4994217;28;20088;-68
2023/05/05 08:05:29;;;;;;;8.32;5.07;;;12.00;99.90;;;;;;4994239;28;20078;-68
2023/05/05 08:07:55;;;;;;;6.70;5.22;;;12.10;99.90;;;;;;4994091;28;20046;-67
2023/05/05 08:10:21;;;;;;;7.30;5.88;;;12.10;99.90;;;;;;4993408;28;20046;-67
2023/05/05 08:12:47;;;;;;;8.60;5.47;;;12.20;99.90;;;;;;4992478;28;20086;-68
2023/05/05 08:15:13;;;;;;;7.13;5.22;;;12.20;99.90;;;;;;4993833;28;20087;-70
2023/05/05 08:17:52;;;;;;;7.60;5.50;;;12.30;99.90;;;;;;4992784;28;20035;-69
2023/05/05 08:20:19;;;;;;;11.05;6.10;;;12.40;99.90;;;;;;4993105;28;20053;-70
2023/05/05 08:22:45;;;;;;;7.70;5.38;;;12.40;99.90;;;;;;4993862;28;20108;-70
2023/05/05 08:25:12;;;;;;;8.73;5.20;;;12.60;99.90;;;;;;4993949;28;20486;-68
2023/05/05 08:27:40;;;;;;;8.73;5.70;;;12.60;99.90;;;;;;4993760;28;20047;-70
2023/05/05 08:30:07;;;;;;;7.55;5.57;;;12.70;99.90;;;;;;4992699;28;20050;-69
2023/05/05 08:32:32;;;;;;;9.93;6.68;;;12.80;99.90;;;;;;4993962;28;20104;-69
2023/05/05 08:35:02;;;;;;;11.05;6.00;;;12.80;99.90;;;;;;4994012;28;20046;-69
2023/05/05 08:37:28;;;;;;;7.78;6.10;;;12.90;99.90;;;;;;4993878;28;20065;-70
2023/05/05 08:39:55;;;;;;;10.23;6.05;;;13.00;99.90;;;;;;4992860;28;20390;-69
2023/05/05 08:42:21;;;;;;;7.38;6.45;;;13.00;99.90;;;;;;4992745;28;20402;-69
2023/05/05 08:44:47;;;;;;;12.05;7.05;;;13.20;99.90;;;;;;4992868;28;20054;-69
2023/05/05 08:47:14;;;;;;;8.15;6.40;;;13.20;99.90;;;;;;4993781;28;20042;-68
2023/05/05 08:49:54;;;;;;;8.77;6.43;;;13.30;99.90;;;;;;4993607;28;20443;-70
2023/05/05 08:52:24;;;;;;;9.80;6.32;;;13.40;99.90;;;;;;4993856;28;20149;-70
2023/05/05 08:55:08;;;;;;;7.55;6.15;;;13.50;99.90;;;;;;4993210;28;20105;-70
2023/05/05 08:57:55;;;;;;;9.55;6.72;;;13.70;99.90;;;;;;4993686;28;20073;-70
2023/05/05 09:00:21;;;;;;;7.32;6.32;;;13.70;99.90;;;;;;4993822;28;20190;-71
2023/05/05 09:02:48;;;;;;;9.00;6.88;;;13.80;99.90;;;;;;4993478;28;20046;-69
2023/05/05 09:05:14;;;;;;;10.75;7.05;;;13.80;99.90;;;;;;4993477;28;20054;-71
2023/05/05 09:07:42;;;;;;;9.80;6.97;;;13.90;99.90;;;;;;4993700;28;20130;-70
2023/05/05 09:10:10;;;;;;;8.82;7.35;;;13.90;99.90;;;;;;4993483;28;20490;-71
2023/05/05 09:12:39;;;;;;;9.55;6.93;;;14.00;99.90;;;;;;4993799;28;20054;-71
2023/05/05 09:15:06;;;;;;;8.65;6.80;;;14.10;99.90;;;;;;4993625;28;20046;-70
2023/05/05 09:17:32;;;;;;;9.18;7.40;;;14.20;99.90;;;;;;4993330;28;20043;-70
2023/05/05 09:20:08;;;;;;;9.00;6.93;;;14.30;99.90;;;;;;4992892;28;20057;-71
2023/05/05 09:22:45;;;;;;;8.68;7.32;;;14.30;99.90;;;;;;4984454;28;20056;-71
2023/05/05 09:25:13;;;;;;;9.95;7.90;;;14.40;99.90;;;;;;4986777;28;20054;-71
2023/05/05 09:27:44;;;;;;;9.95;7.85;;;14.50;99.90;;;;;;4985169;28;20054;-71
2023/05/05 09:30:14;;;;;;;10.48;8.07;;;14.60;99.90;;;;;;4985546;28;20046;-71
2023/05/05 09:32:47;;;;;;;10.80;8.40;;;14.70;99.90;;;;;;4986324;28;20101;-71
2023/05/05 09:35:14;;;;;;;12.50;8.40;;;14.70;99.90;;;;;;4985616;28;20046;-71
2023/05/05 09:37:40;;;;;;;12.73;8.20;;;14.80;99.90;;;;;;4987057;28;20046;-70
2023/05/05 09:40:08;;;;;;;12.50;8.27;;;14.90;99.90;;;;;;4986967;28;20051;-71
2023/05/05 09:42:38;;;;;;;10.57;8.68;;;14.90;99.90;;;;;;4985536;28;20042;-71
2023/05/05 09:45:16;;;;;;;12.27;8.18;;;15.00;99.90;;;;;;4986168;28;20038;-70
2023/05/05 09:47:41;;;;;;;10.45;7.97;;;15.10;99.90;;;;;;4985472;28;20051;-70
2023/05/05 09:50:10;;;;;;;11.55;8.27;;;15.20;99.90;;;;;;4985694;28;20411;-70
2023/05/05 09:52:36;;;;;;;11.13;9.07;;;15.30;99.90;;;;;;4987100;28;20050;-70
2023/05/05 09:55:02;;;;;;;10.65;8.32;;;15.30;99.90;;;;;;4985564;28;20035;-69
2023/05/05 09:57:36;;;;;;;11.43;9.27;;;15.40;99.90;;;;;;4983525;28;20045;-71
2023/05/05 10:00:03;;;;;;;10.32;8.25;;;15.50;99.90;;;;;;4983229;28;20070;-71
2023/05/05 10:02:34;;;;;;;12.23;9.30;;;15.50;99.90;;;;;;4984843;28;20450;-70
2023/05/05 10:05:16;;;;;;;12.95;9.60;;;15.60;99.90;;;;;;4984256;28;20571;-70
2023/05/05 10:07:45;;;;;;;12.27;10.23;;;15.70;99.90;;;;;;4985091;28;20567;-71
2023/05/05 10:10:15;;;;;;;15.05;10.20;;;15.80;99.90;;;;;;4984015;28;20487;-70
2023/05/05 10:12:41;;;;;;;9.90;8.82;;;15.90;99.90;;;;;;4984884;28;20057;-70
2023/05/05 10:15:09;;;;;;;11.55;9.15;;;15.90;99.90;;;;;;4984599;28;20398;-71
2023/05/05 10:17:47;;;;;;;12.25;10.40;;;16.00;99.90;;;;;;4987433;28;20074;-71
2023/05/05 10:20:15;;;;;;;11.77;9.90;;;16.00;99.90;;;;;;4984201;28;20105;-71
2023/05/05 10:22:52;;;;;;;15.75;10.65;;;16.10;99.90;;;;;;4989821;28;20053;-72
2023/05/05 10:25:27;;;;;;;13.50;10.80;;;16.20;99.90;;;;;;4984970;28;20054;-71
2023/05/05 10:27:57;;;;;;;14.80;10.98;;;16.20;99.90;;;;;;4994103;28;20046;-71
2023/05/05 10:30:28;;;;;;;12.75;10.45;;;16.30;99.90;;;;;;4994712;28;20046;-71
2023/05/05 10:33:17;;;;;;;14.15;11.57;;;16.40;99.90;;;;;;4994857;28;20117;-71
2023/05/05 10:35:44;;;;;;;13.75;11.18;;;16.50;99.90;;;;;;4990569;28;20058;-69
2023/05/05 10:38:11;;;;;;;13.43;11.10;;;16.60;99.90;;;;;;4995422;28;20054;-72
2023/05/05 10:40:43;;;;;;;13.05;10.60;;;16.70;99.90;;;;;;4994386;28;20042;-72
2023/05/05 10:43:09;;;;;;;13.60;10.95;;;16.80;99.90;;;;;;4995578;28;20050;-71
2023/05/05 10:45:36;;;;;;;14.27;11.10;;;16.90;99.90;;;;;;4995448;28;20113;-71
2023/05/05 10:48:08;;;;;;;13.68;12.25;;;16.90;99.90;;;;;;4978405;28;20057;-70
2023/05/05 10:50:46;;;;;;;13.70;11.50;;;17.00;99.90;;;;;;4994203;28;20061;-71
2023/05/05 10:53:17;;;;;;;12.05;10.73;;;17.10;99.90;;;;;;4994237;28;20400;-73
2023/05/05 10:55:58;;;;;;;13.85;10.90;;;17.20;99.90;;;;;;4994354;28;20042;-71
2023/05/05 10:58:35;;;;;;;13.82;11.32;;;17.30;99.90;;;;;;4993978;28;20069;-72
2023/05/05 11:01:02;;;;;;;13.25;11.15;;;17.40;99.90;;;;;;4995012;28;20058;-69
2023/05/05 11:03:28;;;;;;;13.68;10.40;;;17.50;99.90;;;;;;4994384;28;20050;-75
2023/05/05 11:06:06;;;;;;;14.45;11.13;;;17.50;99.90;;;;;;4993535;28;20200;-70
2023/05/05 11:08:37;;;;;;;13.85;10.73;;;17.50;99.90;;;;;;4994353;28;20103;-71
2023/05/05 11:11:06;;;;;;;12.13;10.65;;;17.60;99.90;;;;;;4995083;28;20100;-71
2023/05/05 11:13:31;;;;;;;14.93;11.77;;;17.60;99.90;;;;;;4993983;28;20136;-71
2023/05/05 11:15:58;;;;;;;11.63;10.43;;;17.70;99.90;;;;;;4994737;28;20042;-71
2023/05/05 11:18:35;;;;;;;13.70;10.90;;;17.70;99.90;;;;;;4994789;28;20054;-72
2023/05/05 11:21:16;;;;;;;12.95;11.13;;;17.80;99.90;;;;;;4994595;28;20135;-70
2023/05/05 11:23:44;;;;;;;18.80;11.77;;;17.90;99.90;;;;;;4994874;28;20042;-71
2023/05/05 11:26:11;;;;;;;11.93;10.70;;;17.90;99.90;;;;;;4994710;28;20042;-71
2023/05/05 11:28:57;;;;;;;12.95;11.60;;;17.90;99.90;;;;;;4994639;28;20047;-71
2023/05/05 11:31:22;;;;;;;13.73;10.57;;;17.90;99.90;;;;;;4994468;28;20121;-71
2023/05/05 11:33:48;;;;;;;15.07;11.50;;;18.00;99.90;;;;;;4994399;28;20566;-71
2023/05/05 11:36:18;;;;;;;16.60;12.75;;;18.10;99.90;;;;;;4994564;28;20125;-71
2023/05/05 11:39:27;;;;;;;15.30;11.63;;;18.10;99.90;;;;;;4991144;28;20406;-71
2023/05/05 11:42:22;;;;;;;15.52;11.43;;;18.20;99.90;;;;;;4969066;28;20062;-71
2023/05/05 11:44:48;;;;;;;13.55;11.25;;;18.20;99.90;;;;;;4968352;28;20132;-72
2023/05/05 11:47:14;;;;;;;16.65;11.57;;;18.30;99.90;;;;;;4970748;28;20077;-72
2023/05/05 11:49:39;;;;;;;16.15;11.73;;;18.40;99.90;;;;;;4970062;28;20853;-72
2023/05/05 11:52:12;;;;;;;13.38;11.73;;;18.40;99.90;;;;;;4970594;28;20495;-71
2023/05/05 11:54:40;;;;;;;15.07;10.77;;;18.50;99.90;;;;;;4970880;28;20086;-72
2023/05/05 11:57:07;;;;;;;13.85;11.63;;;18.50;99.90;;;;;;4971187;28;20050;-68
2023/05/05 11:59:38;;;;;;;14.35;11.48;;;18.50;99.90;;;;;;4986486;28;20055;-72
2023/05/05 12:02:03;;;;;;;12.73;10.48;;;18.60;99.90;;;;;;4971366;28;20121;-72
2023/05/05 12:04:30;;;;;;;13.63;11.13;;;18.70;99.90;;;;;;4970774;28;20134;-72
2023/05/05 12:06:57;;;;;;;12.73;10.65;;;18.60;99.90;;;;;;4969640;28;20041;-71
2023/05/05 12:09:23;;;;;;;13.45;11.07;;;18.70;99.90;;;;;;4971205;28;20113;-71
2023/05/05 12:11:54;;;;;;;14.40;12.52;;;18.90;99.90;;;;;;4971260;28;20059;-70
2023/05/05 12:14:20;;;;;;;14.77;11.48;;;18.80;99.90;;;;;;4971025;28;20490;-72
2023/05/05 12:17:12;;;;;;;12.63;10.48;;;18.90;99.90;;;;;;4970919;28;20065;-71
2023/05/05 12:19:48;;;;;;;14.52;10.93;;;18.90;99.90;;;;;;4968072;28;20475;-71
2023/05/05 12:22:25;;;;;;;15.15;11.80;;;18.90;99.90;;;;;;4971220;28;20047;-71
2023/05/05 12:25:01;;;;;;;13.60;11.80;;;18.90;99.90;;;;;;4970277;28;20511;-71
2023/05/05 12:27:27;;;;;;;15.45;12.20;;;18.90;99.90;;;;;;4970145;28;20062;-71
2023/05/05 12:29:55;;;;;;;17.55;13.48;;;19.00;99.90;;;;;;4972404;28;20510;-71
2023/05/05 12:32:25;;;;;;;14.68;12.82;;;19.00;99.90;;;;;;4957688;28;20055;-69
2023/05/05 12:34:58;;;;;;;14.07;12.57;;;19.00;99.90;;;;;;4972591;28;20047;-69
2023/05/05 12:37:25;;;;;;;15.20;13.55;;;18.90;99.90;;;;;;4973927;28;20054;-69
2023/05/05 12:39:53;;;;;;;17.35;14.15;;;19.00;99.90;;;;;;4984507;28;20052;-70
2023/05/05 12:42:20;;;;;;;16.02;13.02;;;19.00;99.90;;;;;;4983420;28;20094;-71
2023/05/05 12:44:45;;;;;;;15.43;13.30;;;19.00;99.90;;;;;;4982519;28;20042;-72
2023/05/05 12:47:12;;;;;;;15.43;12.98;;;18.80;99.90;;;;;;4981289;28;20049;-70
2023/05/05 12:49:51;;;;;;;16.30;13.27;;;19.00;99.90;;;;;;4984957;28;20050;-71
2023/05/05 12:52:17;;;;;;;16.58;13.13;;;19.00;99.90;;;;;;4984772;28;20053;-71